sensor_id;sensor_type;location;lat;lon;timestamp;pressure;altitude;pressure_sealevel;temperature;humidity
12203;BME280;6164;42.178;24.622;2023-05-11T00:00:36;100090.88;;;11.28;100.00
12203;BME280;6164;42.178;24.622;2023-05-11T00:03:02;100078.97;;;11.24;100.00
12203;BME280;6164;42.178;24.622;2023-05-11T00:05:30;100086.53;;;11.19;100.00
12203;BME280;6164;42.178;24.622;2023-05-11T00:07:57;100092.00;;;11.26;100.00
12203;BME280;6164;42.178;24.622;2023-05-11T00:10:24;100096.28;;;11.27;100.00
12203;BME280;6164;42.178;24.622;2023-05-11T00:12:50;100111.88;;;11.38;100.00
12203;BME280;6164;42.178;24.622;2023-05-11T00:15:17;100101.50;;;11.44;100.00
12203;BME280;6164;42.178;24.622;2023-05-11T00:17:44;100103.13;;;11.45;100.00
12203;BME280;6164;42.178;24.622;2023-05-11T00:20:11;100101.97;;;11.40;100.00
12203;BME280;6164;42.178;24.622;2023-05-11T00:22:39;100099.81;;;11.43;100.00
12203;BME280;6164;42.178;24.622;2023-05-11T00:25:06;100101.81;;;11.41;100.00
12203;BME280;6164;42.178;24.622;2023-05-11T00:27:33;100114.72;;;11.44;100.00
12203;BME280;6164;42.178;24.622;2023-05-11T00:30:00;100111.75;;;11.47;100.00
12203;BME280;6164;42.178;24.622;2023-05-11T00:32:26;100108.25;;;11.47;100.00
12203;BME280;6164;42.178;24.622;2023-05-11T00:34:53;100112.75;;;11.46;100.00
12203;BME280;6164;42.178;24.622;2023-05-11T00:37:20;100116.16;;;11.39;100.00
12203;BME280;6164;42.178;24.622;2023-05-11T00:39:48;100114.19;;;11.33;100.00
12203;BME280;6164;42.178;24.622;2023-05-11T00:42:14;100118.63;;;11.32;100.00
12203;BME280;6164;42.178;24.622;2023-05-11T00:44:41;100118.13;;;11.37;100.00
12203;BME280;6164;42.178;24.622;2023-05-11T00:47:08;100122.97;;;11.41;100.00
12203;BME280;6164;42.178;24.622;2023-05-11T00:49:35;100121.66;;;11.45;100.00
12203;BME280;6164;42.178;24.622;2023-05-11T00:52:02;100110.91;;;11.47;100.00
12203;BME280;6164;42.178;24.622;2023-05-11T00:54:29;100119.84;;;11.46;100.00
12203;BME280;6164;42.178;24.622;2023-05-11T00:56:57;100112.06;;;11.44;100.00
12203;BME280;6164;42.178;24.622;2023-05-11T00:59:24;100116.69;;;11.42;100.00
12203;BME280;6164;42.178;24.622;2023-05-11T01:01:51;100116.53;;;11.44;100.00
12203;BME280;6164;42.178;24.622;2023-05-11T01:04:18;100110.56;;;11.42;100.00
12203;BME280;6164;42.178;24.622;2023-05-11T01:06:51;100106.75;;;11.36;100.00
12203;BME280;6164;42.178;24.622;2023-05-11T01:09:28;100093.38;;;11.30;100.00
12203;BME280;6164;42.178;24.622;2023-05-11T01:12:08;100117.97;;;11.38;100.00
12203;BME280;6164;42.178;24.622;2023-05-11T01:14:41;100117.16;;;11.38;100.00
12203;BME280;6164;42.178;24.622;2023-05-11T01:17:16;100119.66;;;11.39;100.00
12203;BME280;6164;42.178;24.622;2023-05-11T01:19:47;100125.63;;;11.41;100.00
12203;BME280;6164;42.178;24.622;2023-05-11T01:25:17;100125.44;;;11.43;100.00
12203;BME280;6164;42.178;24.622;2023-05-11T01:28:06;100131.72;;;11.42;100.00
12203;BME280;6164;42.178;24.622;2023-05-11T01:30:42;100135.69;;;11.38;100.00
12203;BME280;6164;42.178;24.622;2023-05-11T01:33:14;100129.53;;;11.29;100.00
12203;BME280;6164;42.178;24.622;2023-05-11T01:35:46;100139.06;;;11.22;100.00
12203;BME280;6164;42.178;24.622;2023-05-11T01:38:15;100142.72;;;11.21;100.00
12203;BME280;6164;42.178;24.622;2023-05-11T01:40:49;100139.41;;;11.19;100.00
12203;BME280;6164;42.178;24.622;2023-05-11T01:43:20;100130.28;;;11.14;100.00
12203;BME280;6164;42.178;24.622;2023-05-11T01:45:49;100131.09;;;11.06;100.00
12203;BME280;6164;42.178;24.622;2023-05-11T01:48:20;100123.28;;;10.97;100.00
12203;BME280;6164;42.178;24.622;2023-05-11T01:50:48;100135.53;;;11.06;100.00
12203;BME280;6164;42.178;24.622;2023-05-11T01:53:17;100133.41;;;11.09;100.00
12203;BME280;6164;42.178;24.622;2023-05-11T01:55:45;100126.16;;;11.11;100.00
12203;BME280;6164;42.178;24.622;2023-05-11T01:58:14;100125.31;;;11.11;100.00
12203;BME280;6164;42.178;24.622;2023-05-11T02:00:43;100126.94;;;11.04;100.00
12203;BME280;6164;42.178;24.622;2023-05-11T02:03:12;100124.56;;;10.93;100.00
12203;BME280;6164;42.178;24.622;2023-05-11T02:05:41;100129.16;;;10.91;100.00
12203;BME280;6164;42.178;24.622;2023-05-11T02:08:09;100113.25;;;10.75;100.00
12203;BME280;6164;42.178;24.622;2023-05-11T02:10:37;100131.63;;;10.84;100.00
12203;BME280;6164;42.178;24.622;2023-05-11T02:13:09;100129.66;;;10.86;100.00
12203;BME280;6164;42.178;24.622;2023-05-11T02:15:38;100119.53;;;10.74;100.00
12203;BME280;6164;42.178;24.622;2023-05-11T02:18:08;100137.72;;;10.85;100.00
12203;BME280;6164;42.178;24.622;2023-05-11T02:20:38;100130.59;;;10.77;100.00
12203;BME280;6164;42.178;24.622;2023-05-11T02:23:08;100142.81;;;10.78;100.00
12203;BME280;6164;42.178;24.622;2023-05-11T02:25:36;100140.81;;;10.72;100.00
12203;BME280;6164;42.178;24.622;2023-05-11T02:28:03;100136.34;;;10.73;100.00
12203;BME280;6164;42.178;24.622;2023-05-11T02:30:31;100127.25;;;10.67;100.00
12203;BME280;6164;42.178;24.622;2023-05-11T02:33:04;100133.69;;;10.73;100.00
12203;BME280;6164;42.178;24.622;2023-05-11T02:35:34;100130.91;;;10.74;100.00
12203;BME280;6164;42.178;24.622;2023-05-11T02:38:06;100131.22;;;10.71;100.00
12203;BME280;6164;42.178;24.622;2023-05-11T02:40:37;100135.84;;;10.69;100.00
12203;BME280;6164;42.178;24.622;2023-05-11T02:43:10;100138.50;;;10.69;100.00
12203;BME280;6164;42.178;24.622;2023-05-11T02:45:41;100142.25;;;10.67;100.00
12203;BME280;6164;42.178;24.622;2023-05-11T02:48:11;100135.00;;;10.69;100.00
12203;BME280;6164;42.178;24.622;2023-05-11T02:50:42;100143.09;;;10.67;100.00
12203;BME280;6164;42.178;24.622;2023-05-11T02:53:14;100146.53;;;10.68;100.00
12203;BME280;6164;42.178;24.622;2023-05-11T02:55:42;100139.44;;;10.68;100.00
12203;BME280;6164;42.178;24.622;2023-05-11T02:58:09;100141.94;;;10.70;100.00
12203;BME280;6164;42.178;24.622;2023-05-11T03:00:37;100142.25;;;10.67;100.00
12203;BME280;6164;42.178;24.622;2023-05-11T03:03:04;100151.75;;;10.59;100.00
12203;BME280;6164;42.178;24.622;2023-05-11T03:05:31;100145.00;;;10.57;100.00
12203;BME280;6164;42.178;24.622;2023-05-11T03:07:58;100149.22;;;10.50;100.00
12203;BME280;6164;42.178;24.622;2023-05-11T03:10:27;100149.75;;;10.53;100.00
12203;BME280;6164;42.178;24.622;2023-05-11T03:12:54;100148.75;;;10.54;100.00
12203;BME280;6164;42.178;24.622;2023-05-11T03:15:21;100147.63;;;10.57;100.00
12203;BME280;6164;42.178;24.622;2023-05-11T03:17:49;100150.28;;;10.57;100.00
12203;BME280;6164;42.178;24.622;2023-05-11T03:20:16;100148.91;;;10.53;100.00
12203;BME280;6164;42.178;24.622;2023-05-11T03:22:45;100151.25;;;10.56;100.00
12203;BME280;6164;42.178;24.622;2023-05-11T03:25:13;100155.03;;;10.53;100.00
12203;BME280;6164;42.178;24.622;2023-05-11T03:27:42;100153.75;;;10.57;100.00
12203;BME280;6164;42.178;24.622;2023-05-11T03:30:12;100156.84;;;10.53;100.00
12203;BME280;6164;42.178;24.622;2023-05-11T03:32:39;100162.97;;;10.53;100.00
12203;BME280;6164;42.178;24.622;2023-05-11T03:35:07;100166.13;;;10.57;100.00
12203;BME280;6164;42.178;24.622;2023-05-11T03:37:35;100168.38;;;10.52;100.00
12203;BME280;6164;42.178;24.622;2023-05-11T03:40:04;100160.78;;;10.49;100.00
12203;BME280;6164;42.178;24.622;2023-05-11T03:42:34;100167.88;;;10.48;100.00
12203;BME280;6164;42.178;24.622;2023-05-11T03:45:04;100159.25;;;10.46;100.00
12203;BME280;6164;42.178;24.622;2023-05-11T03:47:35;100159.63;;;10.51;100.00
12203;BME280;6164;42.178;24.622;2023-05-11T03:50:06;100160.69;;;10.58;100.00
12203;BME280;6164;42.178;24.622;2023-05-11T03:52:34;100164.22;;;10.67;100.00
12203;BME280;6164;42.178;24.622;2023-05-11T03:55:01;100168.66;;;10.67;100.00
12203;BME280;6164;42.178;24.622;2023-05-11T03:57:28;100162.69;;;10.64;100.00
12203;BME280;6164;42.178;24.622;2023-05-11T03:59:55;100163.38;;;10.67;100.00
12203;BME280;6164;42.178;24.622;2023-05-11T04:02:23;100157.63;;;10.71;100.00
12203;BME280;6164;42.178;24.622;2023-05-11T04:04:50;100161.94;;;10.72;100.00
12203;BME280;6164;42.178;24.622;2023-05-11T04:07:17;100148.88;;;10.71;100.00
12203;BME280;6164;42.178;24.622;2023-05-11T04:09:44;100160.31;;;10.79;100.00
12203;BME280;6164;42.178;24.622;2023-05-11T04:12:11;100166.78;;;10.85;100.00
12203;BME280;6164;42.178;24.622;2023-05-11T04:14:37;100170.00;;;10.96;100.00
12203;BME280;6164;42.178;24.622;2023-05-11T04:17:04;100181.75;;;11.02;100.00
12203;BME280;6164;42.178;24.622;2023-05-11T04:19:32;100165.59;;;11.05;100.00
12203;BME280;6164;42.178;24.622;2023-05-11T04:21:59;100163.78;;;11.05;100.00
12203;BME280;6164;42.178;24.622;2023-05-11T04:24:26;100161.91;;;10.98;100.00
12203;BME280;6164;42.178;24.622;2023-05-11T04:26:54;100167.22;;;11.06;100.00
12203;BME280;6164;42.178;24.622;2023-05-11T04:29:21;100171.22;;;11.10;100.00
12203;BME280;6164;42.178;24.622;2023-05-11T04:31:51;100173.75;;;11.19;100.00
12203;BME280;6164;42.178;24.622;2023-05-11T04:34:17;100172.75;;;11.20;100.00
12203;BME280;6164;42.178;24.622;2023-05-11T04:36:47;100167.88;;;11.33;100.00
12203;BME280;6164;42.178;24.622;2023-05-11T04:39:14;100164.06;;;11.36;100.00
12203;BME280;6164;42.178;24.622;2023-05-11T04:41:41;100166.22;;;11.32;100.00
12203;BME280;6164;42.178;24.622;2023-05-11T04:44:08;100158.13;;;11.34;100.00
12203;BME280;6164;42.178;24.622;2023-05-11T04:46:35;100162.66;;;11.49;100.00
12203;BME280;6164;42.178;24.622;2023-05-11T04:49:02;100166.16;;;11.58;100.00
12203;BME280;6164;42.178;24.622;2023-05-11T04:51:29;100158.44;;;11.64;100.00
12203;BME280;6164;42.178;24.622;2023-05-11T04:53:57;100159.31;;;11.81;100.00
12203;BME280;6164;42.178;24.622;2023-05-11T04:56:24;100162.44;;;11.84;100.00
12203;BME280;6164;42.178;24.622;2023-05-11T04:58:51;100166.75;;;11.93;100.00
12203;BME280;6164;42.178;24.622;2023-05-11T05:01:17;100169.22;;;11.95;100.00
12203;BME280;6164;42.178;24.622;2023-05-11T05:03:47;100173.69;;;11.94;100.00
12203;BME280;6164;42.178;24.622;2023-05-11T05:06:14;100166.75;;;11.93;100.00
12203;BME280;6164;42.178;24.622;2023-05-11T05:08:40;100175.88;;;11.99;100.00
12203;BME280;6164;42.178;24.622;2023-05-11T05:11:08;100176.84;;;12.06;100.00
12203;BME280;6164;42.178;24.622;2023-05-11T05:13:35;100166.75;;;12.10;100.00
12203;BME280;6164;42.178;24.622;2023-05-11T05:16:02;100181.69;;;12.27;100.00
12203;BME280;6164;42.178;24.622;2023-05-11T05:18:29;100178.88;;;12.36;100.00
12203;BME280;6164;42.178;24.622;2023-05-11T05:20:55;100176.72;;;12.48;100.00
12203;BME280;6164;42.178;24.622;2023-05-11T05:23:22;100182.16;;;12.54;100.00
12203;BME280;6164;42.178;24.622;2023-05-11T05:25:49;100184.63;;;12.64;100.00
12203;BME280;6164;42.178;24.622;2023-05-11T05:28:17;100182.66;;;12.74;100.00
12203;BME280;6164;42.178;24.622;2023-05-11T05:30:43;100185.97;;;12.76;100.00
12203;BME280;6164;42.178;24.622;2023-05-11T05:33:10;100170.22;;;12.74;100.00
12203;BME280;6164;42.178;24.622;2023-05-11T05:35:37;100176.00;;;12.86;100.00
12203;BME280;6164;42.178;24.622;2023-05-11T05:38:03;100180.78;;;12.90;100.00
12203;BME280;6164;42.178;24.622;2023-05-11T05:40:30;100183.94;;;12.94;100.00
12203;BME280;6164;42.178;24.622;2023-05-11T05:43:01;100191.72;;;13.03;100.00
12203;BME280;6164;42.178;24.622;2023-05-11T05:45:29;100192.22;;;13.07;100.00
12203;BME280;6164;42.178;24.622;2023-05-11T05:47:56;100188.72;;;12.98;100.00
12203;BME280;6164;42.178;24.622;2023-05-11T05:50:24;100191.88;;;12.94;100.00
12203;BME280;6164;42.178;24.622;2023-05-11T05:52:51;100202.16;;;13.05;100.00
12203;BME280;6164;42.178;24.622;2023-05-11T05:55:18;100199.84;;;13.10;100.00
12203;BME280;6164;42.178;24.622;2023-05-11T05:57:45;100199.47;;;13.13;100.00
12203;BME280;6164;42.178;24.622;2023-05-11T06:00:12;100194.19;;;13.13;100.00
12203;BME280;6164;42.178;24.622;2023-05-11T06:02:40;100201.69;;;13.09;100.00
12203;BME280;6164;42.178;24.622;2023-05-11T06:05:08;100195.19;;;13.12;100.00
12203;BME280;6164;42.178;24.622;2023-05-11T06:07:35;100198.53;;;13.06;100.00
12203;BME280;6164;42.178;24.622;2023-05-11T06:10:02;100155.81;;;12.85;100.00
12203;BME280;6164;42.178;24.622;2023-05-11T06:12:29;100203.63;;;13.15;100.00
12203;BME280;6164;42.178;24.622;2023-05-11T06:14:55;100196.84;;;13.21;100.00
12203;BME280;6164;42.178;24.622;2023-05-11T06:17:22;100204.28;;;13.26;100.00
12203;BME280;6164;42.178;24.622;2023-05-11T06:19:50;100189.94;;;13.43;100.00
12203;BME280;6164;42.178;24.622;2023-05-11T06:22:17;100199.72;;;13.50;100.00
12203;BME280;6164;42.178;24.622;2023-05-11T06:24:43;100197.91;;;13.51;100.00
12203;BME280;6164;42.178;24.622;2023-05-11T06:27:10;100200.53;;;13.51;100.00
12203;BME280;6164;42.178;24.622;2023-05-11T06:29:37;100194.53;;;13.57;99.35
12203;BME280;6164;42.178;24.622;2023-05-11T06:32:04;100200.19;;;13.54;98.86
12203;BME280;6164;42.178;24.622;2023-05-11T06:34:31;100200.41;;;13.44;97.78
12203;BME280;6164;42.178;24.622;2023-05-11T06:36:59;100188.13;;;13.43;99.00
12203;BME280;6164;42.178;24.622;2023-05-11T06:39:26;100185.47;;;13.43;98.25
12203;BME280;6164;42.178;24.622;2023-05-11T06:41:53;100193.38;;;13.51;98.87
12203;BME280;6164;42.178;24.622;2023-05-11T06:44:20;100192.91;;;13.48;97.16
12203;BME280;6164;42.178;24.622;2023-05-11T06:46:46;100196.66;;;13.61;97.18
12203;BME280;6164;42.178;24.622;2023-05-11T06:49:13;100189.94;;;13.81;95.39
12203;BME280;6164;42.178;24.622;2023-05-11T06:51:40;100183.72;;;13.97;94.20
12203;BME280;6164;42.178;24.622;2023-05-11T06:54:08;100192.09;;;14.08;91.86
12203;BME280;6164;42.178;24.622;2023-05-11T06:56:35;100193.03;;;14.15;91.89
12203;BME280;6164;42.178;24.622;2023-05-11T06:59:02;100194.50;;;14.26;91.49
12203;BME280;6164;42.178;24.622;2023-05-11T07:01:29;100195.78;;;14.30;89.64
12203;BME280;6164;42.178;24.622;2023-05-11T07:03:56;100146.44;;;14.13;89.78
12203;BME280;6164;42.178;24.622;2023-05-11T07:06:23;100188.63;;;14.53;92.10
12203;BME280;6164;42.178;24.622;2023-05-11T07:08:49;100183.38;;;14.68;88.91
12203;BME280;6164;42.178;24.622;2023-05-11T07:11:18;100192.16;;;14.83;87.65
12203;BME280;6164;42.178;24.622;2023-05-11T07:13:44;100182.72;;;14.80;85.62
12203;BME280;6164;42.178;24.622;2023-05-11T07:16:11;100182.84;;;14.87;83.42
12203;BME280;6164;42.178;24.622;2023-05-11T07:18:38;100184.75;;;14.93;82.74
12203;BME280;6164;42.178;24.622;2023-05-11T07:21:05;100182.56;;;14.82;81.37
12203;BME280;6164;42.178;24.622;2023-05-11T07:23:31;100182.91;;;14.79;80.85
12203;BME280;6164;42.178;24.622;2023-05-11T07:25:58;100190.50;;;14.67;80.35
12203;BME280;6164;42.178;24.622;2023-05-11T07:28:27;100193.06;;;14.61;80.70
12203;BME280;6164;42.178;24.622;2023-05-11T07:30:54;100188.09;;;14.58;80.90
12203;BME280;6164;42.178;24.622;2023-05-11T07:33:20;100186.81;;;14.68;83.08
12203;BME280;6164;42.178;24.622;2023-05-11T07:35:48;100188.03;;;14.80;83.87
12203;BME280;6164;42.178;24.622;2023-05-11T07:38:14;100188.97;;;14.87;84.08
12203;BME280;6164;42.178;24.622;2023-05-11T07:40:42;100192.63;;;14.86;83.12
12203;BME280;6164;42.178;24.622;2023-05-11T07:43:09;100192.25;;;14.89;79.99
12203;BME280;6164;42.178;24.622;2023-05-11T07:45:37;100188.44;;;14.92;81.06
12203;BME280;6164;42.178;24.622;2023-05-11T07:48:04;100187.97;;;15.03;79.71
12203;BME280;6164;42.178;24.622;2023-05-11T07:50:32;100182.22;;;15.14;77.81
12203;BME280;6164;42.178;24.622;2023-05-11T07:52:58;100178.09;;;15.11;77.07
12203;BME280;6164;42.178;24.622;2023-05-11T07:55:25;100178.81;;;15.20;77.56
12203;BME280;6164;42.178;24.622;2023-05-11T07:57:55;100172.47;;;15.35;79.44
12203;BME280;6164;42.178;24.622;2023-05-11T08:00:22;100165.97;;;15.52;77.88
12203;BME280;6164;42.178;24.622;2023-05-11T08:02:50;100180.16;;;15.74;76.07
12203;BME280;6164;42.178;24.622;2023-05-11T08:05:17;100151.56;;;15.61;74.52
12203;BME280;6164;42.178;24.622;2023-05-11T08:07:44;100187.78;;;15.77;73.61
12203;BME280;6164;42.178;24.622;2023-05-11T08:10:12;100182.91;;;15.80;74.46
12203;BME280;6164;42.178;24.622;2023-05-11T08:12:38;100174.66;;;15.75;73.78
12203;BME280;6164;42.178;24.622;2023-05-11T08:15:06;100188.53;;;15.71;73.80
12203;BME280;6164;42.178;24.622;2023-05-11T08:17:33;100185.31;;;15.75;74.24
12203;BME280;6164;42.178;24.622;2023-05-11T08:20:01;100184.19;;;15.85;74.93
12203;BME280;6164;42.178;24.622;2023-05-11T08:22:28;100141.53;;;15.63;75.01
12203;BME280;6164;42.178;24.622;2023-05-11T08:24:55;100178.88;;;15.70;75.76
12203;BME280;6164;42.178;24.622;2023-05-11T08:27:21;100165.91;;;15.46;78.26
12203;BME280;6164;42.178;24.622;2023-05-11T08:29:49;100177.72;;;15.58;78.97
12203;BME280;6164;42.178;24.622;2023-05-11T08:32:16;100187.16;;;15.60;78.89
12203;BME280;6164;42.178;24.622;2023-05-11T08:34:42;100178.53;;;15.58;78.08
12203;BME280;6164;42.178;24.622;2023-05-11T08:37:11;100186.50;;;15.58;77.97
12203;BME280;6164;42.178;24.622;2023-05-11T08:39:37;100183.78;;;15.52;77.71
12203;BME280;6164;42.178;24.622;2023-05-11T08:42:04;100177.47;;;15.53;77.98
12203;BME280;6164;42.178;24.622;2023-05-11T08:44:32;100154.03;;;15.34;75.41
12203;BME280;6164;42.178;24.622;2023-05-11T08:47:02;100178.81;;;15.49;75.78
12203;BME280;6164;42.178;24.622;2023-05-11T08:49:30;100177.09;;;15.56;76.33
12203;BME280;6164;42.178;24.622;2023-05-11T08:51:58;100182.75;;;15.67;75.39
12203;BME280;6164;42.178;24.622;2023-05-11T08:54:27;100184.84;;;15.72;74.41
12203;BME280;6164;42.178;24.622;2023-05-11T08:56:53;100185.03;;;15.70;74.07
12203;BME280;6164;42.178;24.622;2023-05-11T08:59:22;100170.97;;;15.76;74.68
12203;BME280;6164;42.178;24.622;2023-05-11T09:01:51;100166.56;;;15.83;74.48
12203;BME280;6164;42.178;24.622;2023-05-11T09:04:19;100164.94;;;16.04;74.19
12203;BME280;6164;42.178;24.622;2023-05-11T09:06:47;100170.97;;;16.12;72.70
12203;BME280;6164;42.178;24.622;2023-05-11T09:40:55;100127.88;;;16.30;72.60
12203;BME280;6164;42.178;24.622;2023-05-11T09:43:23;100133.94;;;16.66;70.46
12203;BME280;6164;42.178;24.622;2023-05-11T09:45:52;100142.78;;;17.00;68.72
12203;BME280;6164;42.178;24.622;2023-05-11T09:48:27;100145.53;;;17.13;66.05
12203;BME280;6164;42.178;24.622;2023-05-11T09:51:01;100131.66;;;17.25;65.99
12203;BME280;6164;42.178;24.622;2023-05-11T09:53:38;100138.28;;;17.42;66.17
12203;BME280;6164;42.178;24.622;2023-05-11T09:56:08;100109.13;;;17.40;65.41
12203;BME280;6164;42.178;24.622;2023-05-11T09:58:46;100130.63;;;17.73;65.85
12203;BME280;6164;42.178;24.622;2023-05-11T10:01:13;100135.75;;;17.68;63.65
12203;BME280;6164;42.178;24.622;2023-05-11T10:03:49;100134.34;;;17.78;64.77
12203;BME280;6164;42.178;24.622;2023-05-11T10:06:15;100139.06;;;17.76;64.22
12203;BME280;6164;42.178;24.622;2023-05-11T10:08:42;100138.41;;;17.68;64.44
12203;BME280;6164;42.178;24.622;2023-05-11T10:11:11;100130.03;;;17.77;65.59
12203;BME280;6164;42.178;24.622;2023-05-11T10:13:38;100144.59;;;17.68;62.56
12203;BME280;6164;42.178;24.622;2023-05-11T10:16:06;100138.09;;;17.90;63.65
12203;BME280;6164;42.178;24.622;2023-05-11T10:18:35;100131.72;;;17.98;62.08
12203;BME280;6164;42.178;24.622;2023-05-11T10:21:02;100126.19;;;18.06;62.82
12203;BME280;6164;42.178;24.622;2023-05-11T10:23:30;100127.44;;;18.16;62.51
12203;BME280;6164;42.178;24.622;2023-05-11T10:25:58;100128.06;;;18.31;61.90
12203;BME280;6164;42.178;24.622;2023-05-11T10:28:27;100131.75;;;18.37;60.92
12203;BME280;6164;42.178;24.622;2023-05-11T10:30:55;100133.03;;;18.41;60.95
12203;BME280;6164;42.178;24.622;2023-05-11T10:33:22;100112.03;;;18.31;60.62
12203;BME280;6164;42.178;24.622;2023-05-11T10:35:49;100139.00;;;18.50;59.88
12203;BME280;6164;42.178;24.622;2023-05-11T10:38:16;100130.97;;;18.76;59.62
12203;BME280;6164;42.178;24.622;2023-05-11T10:40:46;100125.41;;;18.77;59.04
12203;BME280;6164;42.178;24.622;2023-05-11T10:46:23;100113.59;;;19.11;59.95
12203;BME280;6164;42.178;24.622;2023-05-11T10:49:07;100144.28;;;19.08;57.02
12203;BME280;6164;42.178;24.622;2023-05-11T10:51:45;100143.25;;;19.03;56.75
12203;BME280;6164;42.178;24.622;2023-05-11T10:54:25;100144.47;;;19.13;55.91
12203;BME280;6164;42.178;24.622;2023-05-11T10:57:14;100126.06;;;19.43;56.95
12203;BME280;6164;42.178;24.622;2023-05-11T11:00:21;100147.56;;;19.74;56.11
12203;BME280;6164;42.178;24.622;2023-05-11T11:02:57;100158.94;;;19.63;54.64
12203;BME280;6164;42.178;24.622;2023-05-11T11:05:33;100146.97;;;19.65;54.91
12203;BME280;6164;42.178;24.622;2023-05-11T11:08:01;100131.53;;;19.61;56.36
12203;BME280;6164;42.178;24.622;2023-05-11T11:10:30;100128.84;;;19.67;55.57
12203;BME280;6164;42.178;24.622;2023-05-11T11:13:01;100136.44;;;19.71;54.86
12203;BME280;6164;42.178;24.622;2023-05-11T11:18:31;100123.97;;;19.89;54.02
12203;BME280;6164;42.178;24.622;2023-05-11T11:20:58;100145.28;;;20.15;53.42
12203;BME280;6164;42.178;24.622;2023-05-11T11:23:42;100144.50;;;20.39;52.71
12203;BME280;6164;42.178;24.622;2023-05-11T11:26:10;100137.19;;;20.46;53.26
12203;BME280;6164;42.178;24.622;2023-05-11T11:29:07;100125.50;;;20.65;53.44
12203;BME280;6164;42.178;24.622;2023-05-11T11:31:35;100137.91;;;20.84;52.29
12203;BME280;6164;42.178;24.622;2023-05-11T11:34:34;100148.56;;;20.91;51.32
12203;BME280;6164;42.178;24.622;2023-05-11T11:37:07;100137.28;;;20.82;52.16
12203;BME280;6164;42.178;24.622;2023-05-11T11:39:55;100147.28;;;20.75;51.15
12203;BME280;6164;42.178;24.622;2023-05-11T11:42:33;100137.34;;;20.76;51.59
12203;BME280;6164;42.178;24.622;2023-05-11T11:45:24;100122.16;;;20.70;52.08
12203;BME280;6164;42.178;24.622;2023-05-11T11:48:11;100133.03;;;20.75;51.09
12203;BME280;6164;42.178;24.622;2023-05-11T11:50:41;100142.34;;;20.72;50.15
12203;BME280;6164;42.178;24.622;2023-05-11T11:53:12;100130.09;;;20.58;50.59
12203;BME280;6164;42.178;24.622;2023-05-11T11:55:49;100084.38;;;20.47;53.22
12203;BME280;6164;42.178;24.622;2023-05-11T12:01:21;100070.81;;;20.17;51.35
12203;BME280;6164;42.178;24.622;2023-05-11T12:03:57;100129.94;;;20.29;49.63
12203;BME280;6164;42.178;24.622;2023-05-11T12:06:38;100114.34;;;20.13;51.35
12203;BME280;6164;42.178;24.622;2023-05-11T12:09:05;100104.91;;;20.04;50.86
12203;BME280;6164;42.178;24.622;2023-05-11T12:11:33;100095.19;;;20.16;50.35
12203;BME280;6164;42.178;24.622;2023-05-11T12:14:01;100085.56;;;20.33;51.64
12203;BME280;6164;42.178;24.622;2023-05-11T12:16:28;100097.81;;;20.47;49.50
12203;BME280;6164;42.178;24.622;2023-05-11T12:18:56;100107.00;;;20.57;48.89
12203;BME280;6164;42.178;24.622;2023-05-11T12:21:23;100130.16;;;20.52;48.50
12203;BME280;6164;42.178;24.622;2023-05-11T12:23:53;100119.69;;;20.44;48.52
12203;BME280;6164;42.178;24.622;2023-05-11T12:26:22;100104.75;;;20.30;50.13
12203;BME280;6164;42.178;24.622;2023-05-11T12:28:49;100097.22;;;20.14;49.32
12203;BME280;6164;42.178;24.622;2023-05-11T12:31:16;100103.00;;;20.17;48.98
12203;BME280;6164;42.178;24.622;2023-05-11T12:33:46;100070.47;;;20.07;49.90
12203;BME280;6164;42.178;24.622;2023-05-11T12:36:14;100073.44;;;20.24;50.90
12203;BME280;6164;42.178;24.622;2023-05-11T12:38:44;100053.28;;;20.21;49.76
12203;BME280;6164;42.178;24.622;2023-05-11T12:41:19;100037.81;;;20.41;50.83
12203;BME280;6164;42.178;24.622;2023-05-11T12:43:46;100059.53;;;20.58;49.77
12203;BME280;6164;42.178;24.622;2023-05-11T12:46:14;100070.66;;;20.79;48.53
12203;BME280;6164;42.178;24.622;2023-05-11T12:48:44;100063.00;;;21.01;48.54
12203;BME280;6164;42.178;24.622;2023-05-11T12:51:11;100080.91;;;21.07;47.54
12203;BME280;6164;42.178;24.622;2023-05-11T12:53:39;100066.44;;;21.26;48.57
12203;BME280;6164;42.178;24.622;2023-05-11T12:56:06;100091.19;;;21.46;46.69
12203;BME280;6164;42.178;24.622;2023-05-11T12:58:38;100102.13;;;21.63;46.58
12203;BME280;6164;42.178;24.622;2023-05-11T13:01:06;100114.41;;;21.70;45.27
12203;BME280;6164;42.178;24.622;2023-05-11T13:03:33;100116.88;;;21.72;45.88
12203;BME280;6164;42.178;24.622;2023-05-11T13:06:05;100099.34;;;21.69;46.90
12203;BME280;6164;42.178;24.622;2023-05-11T13:08:32;100104.44;;;21.59;46.49
12203;BME280;6164;42.178;24.622;2023-05-11T13:11:17;100085.25;;;21.56;47.55
12203;BME280;6164;42.178;24.622;2023-05-11T13:13:45;100086.22;;;21.43;46.62
12203;BME280;6164;42.178;24.622;2023-05-11T13:16:22;100087.84;;;21.33;46.76
12203;BME280;6164;42.178;24.622;2023-05-11T13:18:56;100082.16;;;21.23;47.32
12203;BME280;6164;42.178;24.622;2023-05-11T13:21:22;100086.88;;;21.09;46.64
12203;BME280;6164;42.178;24.622;2023-05-11T13:23:49;100076.78;;;20.86;47.25
12203;BME280;6164;42.178;24.622;2023-05-11T13:26:21;100066.78;;;20.75;47.41
12203;BME280;6164;42.178;24.622;2023-05-11T13:28:49;100056.31;;;20.67;47.95
12203;BME280;6164;42.178;24.622;2023-05-11T13:31:16;100038.22;;;20.63;48.21
12203;BME280;6164;42.178;24.622;2023-05-11T13:33:43;100020.03;;;20.65;48.56
12203;BME280;6164;42.178;24.622;2023-05-11T13:36:10;100025.34;;;20.71;47.57
12203;BME280;6164;42.178;24.622;2023-05-11T13:38:37;100035.47;;;20.69;47.25